sensor_id;sensor_type;location;lat;lon;timestamp;temperature;humidity
17851;DHT22;9051;51.548;14.348;2022-11-20T00:02:28;-1.10;99.90
17851;DHT22;9051;51.548;14.348;2022-11-20T00:05:00;-1.10;99.90
17851;DHT22;9051;51.548;14.348;2022-11-20T00:07:32;-1.20;99.90
17851;DHT22;9051;51.548;14.348;2022-11-20T00:10:06;-1.20;99.90
17851;DHT22;9051;51.548;14.348;2022-11-20T00:12:38;-1.20;99.90
17851;DHT22;9051;51.548;14.348;2022-11-20T00:15:10;-1.30;99.90
17851;DHT22;9051;51.548;14.348;2022-11-20T00:17:42;-1.30;99.90
17851;DHT22;9051;51.548;14.348;2022-11-20T00:20:15;-1.30;99.90
17851;DHT22;9051;51.548;14.348;2022-11-20T00:22:46;-1.30;99.90
17851;DHT22;9051;51.548;14.348;2022-11-20T00:25:20;-1.40;99.90
17851;DHT22;9051;51.548;14.348;2022-11-20T00:27:52;-1.40;99.90
17851;DHT22;9051;51.548;14.348;2022-11-20T00:30:24;-1.40;99.90
17851;DHT22;9051;51.548;14.348;2022-11-20T00:32:58;-1.40;99.90
17851;DHT22;9051;51.548;14.348;2022-11-20T00:35:32;-1.40;99.90
17851;DHT22;9051;51.548;14.348;2022-11-20T00:38:04;-1.50;99.90
17851;DHT22;9051;51.548;14.348;2022-11-20T00:40:37;-1.60;99.90
17851;DHT22;9051;51.548;14.348;2022-11-20T00:43:09;-1.60;99.90
17851;DHT22;9051;51.548;14.348;2022-11-20T00:45:41;-1.70;99.90
17851;DHT22;9051;51.548;14.348;2022-11-20T00:48:13;-1.70;99.90
17851;DHT22;9051;51.548;14.348;2022-11-20T00:50:45;-1.70;99.90
17851;DHT22;9051;51.548;14.348;2022-11-20T00:53:17;-1.80;99.90
17851;DHT22;9051;51.548;14.348;2022-11-20T00:55:55;-1.80;99.90
17851;DHT22;9051;51.548;14.348;2022-11-20T00:58:29;-1.80;99.90
17851;DHT22;9051;51.548;14.348;2022-11-20T01:01:03;-1.90;99.90
17851;DHT22;9051;51.548;14.348;2022-11-20T01:03:38;-1.90;99.90
17851;DHT22;9051;51.548;14.348;2022-11-20T01:06:11;-2.00;99.90
17851;DHT22;9051;51.548;14.348;2022-11-20T01:08:44;-2.00;99.90
17851;DHT22;9051;51.548;14.348;2022-11-20T01:11:20;-2.10;99.90
17851;DHT22;9051;51.548;14.348;2022-11-20T01:13:52;-2.10;99.90
17851;DHT22;9051;51.548;14.348;2022-11-20T01:16:27;-2.10;99.90
17851;DHT22;9051;51.548;14.348;2022-11-20T01:19:01;-2.00;99.90
17851;DHT22;9051;51.548;14.348;2022-11-20T01:21:34;-2.10;99.90
17851;DHT22;9051;51.548;14.348;2022-11-20T01:24:08;-2.10;99.90
17851;DHT22;9051;51.548;14.348;2022-11-20T01:26:44;-2.10;99.90
17851;DHT22;9051;51.548;14.348;2022-11-20T01:29:18;-2.10;99.90
17851;DHT22;9051;51.548;14.348;2022-11-20T01:31:50;-2.10;99.90
17851;DHT22;9051;51.548;14.348;2022-11-20T01:34:23;-2.10;99.90
17851;DHT22;9051;51.548;14.348;2022-11-20T01:36:55;-2.10;99.90
17851;DHT22;9051;51.548;14.348;2022-11-20T01:39:27;-2.10;99.90
17851;DHT22;9051;51.548;14.348;2022-11-20T01:42:00;-2.10;99.90
17851;DHT22;9051;51.548;14.348;2022-11-20T01:44:53;-2.10;99.90
17851;DHT22;9051;51.548;14.348;2022-11-20T01:47:31;-2.10;99.90
17851;DHT22;9051;51.548;14.348;2022-11-20T01:50:13;-2.10;99.90
17851;DHT22;9051;51.548;14.348;2022-11-20T01:52:50;-2.10;99.90
17851;DHT22;9051;51.548;14.348;2022-11-20T01:55:27;-2.10;99.90
17851;DHT22;9051;51.548;14.348;2022-11-20T01:58:02;-2.10;99.90
17851;DHT22;9051;51.548;14.348;2022-11-20T02:00:35;-2.10;99.90
17851;DHT22;9051;51.548;14.348;2022-11-20T02:03:09;-2.10;99.90
17851;DHT22;9051;51.548;14.348;2022-11-20T02:05:46;-2.20;99.90
17851;DHT22;9051;51.548;14.348;2022-11-20T02:08:20;-2.20;99.90
17851;DHT22;9051;51.548;14.348;2022-11-20T02:10:52;-2.20;99.90
17851;DHT22;9051;51.548;14.348;2022-11-20T02:13:26;-2.20;99.90
17851;DHT22;9051;51.548;14.348;2022-11-20T02:16:19;-2.20;99.90
17851;DHT22;9051;51.548;14.348;2022-11-20T02:18:53;-2.20;99.90
17851;DHT22;9051;51.548;14.348;2022-11-20T02:21:32;-2.20;99.90
17851;DHT22;9051;51.548;14.348;2022-11-20T02:24:08;-2.20;99.90
17851;DHT22;9051;51.548;14.348;2022-11-20T02:26:49;-2.30;99.90
17851;DHT22;9051;51.548;14.348;2022-11-20T02:29:25;-2.30;99.90
17851;DHT22;9051;51.548;14.348;2022-11-20T02:31:59;-2.30;99.90
17851;DHT22;9051;51.548;14.348;2022-11-20T02:34:32;-2.30;99.90
17851;DHT22;9051;51.548;14.348;2022-11-20T02:37:04;-2.30;99.90
17851;DHT22;9051;51.548;14.348;2022-11-20T02:39:37;-2.30;99.90
17851;DHT22;9051;51.548;14.348;2022-11-20T02:42:09;-2.30;99.90
17851;DHT22;9051;51.548;14.348;2022-11-20T02:44:41;-2.40;99.90
17851;DHT22;9051;51.548;14.348;2022-11-20T02:47:13;-2.30;99.90
17851;DHT22;9051;51.548;14.348;2022-11-20T02:49:45;-2.40;99.90
17851;DHT22;9051;51.548;14.348;2022-11-20T02:52:18;-2.40;99.90
17851;DHT22;9051;51.548;14.348;2022-11-20T02:54:52;-2.40;99.90
17851;DHT22;9051;51.548;14.348;2022-11-20T02:57:24;-2.40;99.90
17851;DHT22;9051;51.548;14.348;2022-11-20T02:59:56;-2.40;99.90
17851;DHT22;9051;51.548;14.348;2022-11-20T03:02:29;-2.40;99.90
17851;DHT22;9051;51.548;14.348;2022-11-20T03:05:01;-2.40;99.90
17851;DHT22;9051;51.548;14.348;2022-11-20T03:07:34;-2.40;99.90
17851;DHT22;9051;51.548;14.348;2022-11-20T03:10:08;-2.40;99.90
17851;DHT22;9051;51.548;14.348;2022-11-20T03:12:40;-2.40;99.90
17851;DHT22;9051;51.548;14.348;2022-11-20T03:15:12;-2.40;99.90
17851;DHT22;9051;51.548;14.348;2022-11-20T03:17:44;-2.30;99.90
17851;DHT22;9051;51.548;14.348;2022-11-20T03:20:16;-2.40;99.90
17851;DHT22;9051;51.548;14.348;2022-11-20T03:22:49;-2.40;99.90
17851;DHT22;9051;51.548;14.348;2022-11-20T03:25:22;-2.50;99.90
17851;DHT22;9051;51.548;14.348;2022-11-20T03:27:54;-2.50;99.90
17851;DHT22;9051;51.548;14.348;2022-11-20T03:30:26;-2.50;99.90
17851;DHT22;9051;51.548;14.348;2022-11-20T03:32:58;-2.50;99.90
17851;DHT22;9051;51.548;14.348;2022-11-20T03:35:30;-2.50;99.90
17851;DHT22;9051;51.548;14.348;2022-11-20T03:38:02;-2.50;99.90
17851;DHT22;9051;51.548;14.348;2022-11-20T03:40:35;-2.60;99.90
17851;DHT22;9051;51.548;14.348;2022-11-20T03:43:09;-2.60;99.90
17851;DHT22;9051;51.548;14.348;2022-11-20T03:45:41;-2.60;99.90
17851;DHT22;9051;51.548;14.348;2022-11-20T03:48:14;-2.60;99.90
17851;DHT22;9051;51.548;14.348;2022-11-20T03:50:46;-2.70;99.90
17851;DHT22;9051;51.548;14.348;2022-11-20T03:53:18;-2.70;99.90
17851;DHT22;9051;51.548;14.348;2022-11-20T03:55:52;-2.70;99.90
17851;DHT22;9051;51.548;14.348;2022-11-20T03:58:24;-2.70;99.90
17851;DHT22;9051;51.548;14.348;2022-11-20T04:00:56;-2.70;99.90
17851;DHT22;9051;51.548;14.348;2022-11-20T04:03:28;-2.70;99.90
17851;DHT22;9051;51.548;14.348;2022-11-20T04:06:02;-2.70;99.90
17851;DHT22;9051;51.548;14.348;2022-11-20T04:08:35;-2.70;99.90
17851;DHT22;9051;51.548;14.348;2022-11-20T04:11:13;-2.70;99.90
17851;DHT22;9051;51.548;14.348;2022-11-20T04:13:47;-2.70;99.90
17851;DHT22;9051;51.548;14.348;2022-11-20T04:16:20;-2.70;99.90
17851;DHT22;9051;51.548;14.348;2022-11-20T04:18:53;-2.70;99.90
17851;DHT22;9051;51.548;14.348;2022-11-20T04:21:26;-2.70;99.90
17851;DHT22;9051;51.548;14.348;2022-11-20T04:23:58;-2.70;99.90
17851;DHT22;9051;51.548;14.348;2022-11-20T04:26:32;-2.70;99.90
17851;DHT22;9051;51.548;14.348;2022-11-20T04:29:04;-2.70;99.90
17851;DHT22;9051;51.548;14.348;2022-11-20T04:31:36;-2.70;99.90
17851;DHT22;9051;51.548;14.348;2022-11-20T04:34:11;-2.70;99.90
17851;DHT22;9051;51.548;14.348;2022-11-20T04:36:43;-2.70;99.90
17851;DHT22;9051;51.548;14.348;2022-11-20T04:39:15;-2.70;99.90
17851;DHT22;9051;51.548;14.348;2022-11-20T04:41:49;-2.70;99.90
17851;DHT22;9051;51.548;14.348;2022-11-20T04:44:41;-2.70;99.90
17851;DHT22;9051;51.548;14.348;2022-11-20T04:47:13;-2.70;99.90
17851;DHT22;9051;51.548;14.348;2022-11-20T04:49:46;-2.70;99.90
17851;DHT22;9051;51.548;14.348;2022-11-20T04:52:18;-2.70;99.90
17851;DHT22;9051;51.548;14.348;2022-11-20T04:54:50;-2.70;99.90
17851;DHT22;9051;51.548;14.348;2022-11-20T04:57:24;-2.70;99.90
17851;DHT22;9051;51.548;14.348;2022-11-20T04:59:56;-2.70;99.90
17851;DHT22;9051;51.548;14.348;2022-11-20T05:02:30;-2.70;99.90
17851;DHT22;9051;51.548;14.348;2022-11-20T05:05:03;-2.70;99.90
17851;DHT22;9051;51.548;14.348;2022-11-20T05:07:35;-2.70;99.90
17851;DHT22;9051;51.548;14.348;2022-11-20T05:10:07;-2.70;99.90
17851;DHT22;9051;51.548;14.348;2022-11-20T05:12:41;-2.70;99.90
17851;DHT22;9051;51.548;14.348;2022-11-20T05:15:13;-2.60;99.90
17851;DHT22;9051;51.548;14.348;2022-11-20T05:17:47;-2.60;99.90
17851;DHT22;9051;51.548;14.348;2022-11-20T05:20:19;-2.60;99.90
17851;DHT22;9051;51.548;14.348;2022-11-20T05:22:51;-2.60;99.90
17851;DHT22;9051;51.548;14.348;2022-11-20T05:25:23;-2.60;99.90
17851;DHT22;9051;51.548;14.348;2022-11-20T05:27:57;-2.60;99.90
17851;DHT22;9051;51.548;14.348;2022-11-20T05:30:29;-2.60;99.90
17851;DHT22;9051;51.548;14.348;2022-11-20T05:33:01;-2.60;99.90
17851;DHT22;9051;51.548;14.348;2022-11-20T05:35:33;-2.60;99.90
17851;DHT22;9051;51.548;14.348;2022-11-20T05:38:05;-2.60;99.90
17851;DHT22;9051;51.548;14.348;2022-11-20T05:40:37;-2.60;99.90
17851;DHT22;9051;51.548;14.348;2022-11-20T05:43:10;-2.60;99.90
17851;DHT22;9051;51.548;14.348;2022-11-20T05:45:42;-2.60;99.90
17851;DHT22;9051;51.548;14.348;2022-11-20T05:48:14;-2.50;99.90
17851;DHT22;9051;51.548;14.348;2022-11-20T05:50:46;-2.50;99.90
17851;DHT22;9051;51.548;14.348;2022-11-20T05:53:18;-2.60;99.90
17851;DHT22;9051;51.548;14.348;2022-11-20T05:55:56;-2.60;99.90
17851;DHT22;9051;51.548;14.348;2022-11-20T05:58:30;-2.50;99.90
17851;DHT22;9051;51.548;14.348;2022-11-20T06:01:05;-2.60;99.90
17851;DHT22;9051;51.548;14.348;2022-11-20T06:03:37;-2.50;99.90
17851;DHT22;9051;51.548;14.348;2022-11-20T06:06:09;-2.60;99.90
17851;DHT22;9051;51.548;14.348;2022-11-20T06:08:42;-2.60;99.90
17851;DHT22;9051;51.548;14.348;2022-11-20T06:11:14;-2.60;99.90
17851;DHT22;9051;51.548;14.348;2022-11-20T06:13:48;-2.60;99.90
17851;DHT22;9051;51.548;14.348;2022-11-20T06:16:20;-2.60;99.90
17851;DHT22;9051;51.548;14.348;2022-11-20T06:18:52;-2.60;99.90
17851;DHT22;9051;51.548;14.348;2022-11-20T06:21:24;-2.60;99.90
17851;DHT22;9051;51.548;14.348;2022-11-20T06:23:56;-2.60;99.90
17851;DHT22;9051;51.548;14.348;2022-11-20T06:26:28;-2.60;99.90
17851;DHT22;9051;51.548;14.348;2022-11-20T06:29:03;-2.70;99.90
17851;DHT22;9051;51.548;14.348;2022-11-20T06:31:35;-2.70;99.90
17851;DHT22;9051;51.548;14.348;2022-11-20T06:34:08;-2.70;99.90
17851;DHT22;9051;51.548;14.348;2022-11-20T06:36:40;-2.70;99.90
17851;DHT22;9051;51.548;14.348;2022-11-20T06:39:12;-2.70;99.90
17851;DHT22;9051;51.548;14.348;2022-11-20T06:41:44;-2.70;99.90
17851;DHT22;9051;51.548;14.348;2022-11-20T06:44:17;-2.80;99.90
17851;DHT22;9051;51.548;14.348;2022-11-20T06:46:49;-2.80;99.90
17851;DHT22;9051;51.548;14.348;2022-11-20T06:49:21;-2.80;99.90
17851;DHT22;9051;51.548;14.348;2022-11-20T06:51:53;-2.80;99.90
17851;DHT22;9051;51.548;14.348;2022-11-20T06:54:25;-2.80;99.90
17851;DHT22;9051;51.548;14.348;2022-11-20T06:56:57;-2.80;99.90
17851;DHT22;9051;51.548;14.348;2022-11-20T06:59:31;-2.80;99.90
17851;DHT22;9051;51.548;14.348;2022-11-20T07:02:03;-2.80;99.90
17851;DHT22;9051;51.548;14.348;2022-11-20T07:04:35;-2.80;99.90
17851;DHT22;9051;51.548;14.348;2022-11-20T07:07:07;-2.80;99.90
17851;DHT22;9051;51.548;14.348;2022-11-20T07:09:40;-2.80;99.90
17851;DHT22;9051;51.548;14.348;2022-11-20T07:12:12;-2.80;99.90
17851;DHT22;9051;51.548;14.348;2022-11-20T07:14:45;-2.70;99.90
17851;DHT22;9051;51.548;14.348;2022-11-20T07:17:17;-2.70;99.90
17851;DHT22;9051;51.548;14.348;2022-11-20T07:19:50;-2.70;99.90
17851;DHT22;9051;51.548;14.348;2022-11-20T07:22:22;-2.60;99.90
17851;DHT22;9051;51.548;14.348;2022-11-20T07:24:54;-2.60;99.90
17851;DHT22;9051;51.548;14.348;2022-11-20T07:27:26;-2.50;99.90
17851;DHT22;9051;51.548;14.348;2022-11-20T07:29:59;-2.50;99.90
17851;DHT22;9051;51.548;14.348;2022-11-20T07:32:32;-2.40;99.90
17851;DHT22;9051;51.548;14.348;2022-11-20T07:35:05;-2.40;99.90
17851;DHT22;9051;51.548;14.348;2022-11-20T07:37:37;-2.30;99.90
17851;DHT22;9051;51.548;14.348;2022-11-20T07:40:10;-2.30;99.90
17851;DHT22;9051;51.548;14.348;2022-11-20T07:42:47;-2.20;99.90
17851;DHT22;9051;51.548;14.348;2022-11-20T07:45:23;-2.20;99.90
17851;DHT22;9051;51.548;14.348;2022-11-20T07:47:55;-2.10;99.90
17851;DHT22;9051;51.548;14.348;2022-11-20T07:50:27;-2.10;99.90
17851;DHT22;9051;51.548;14.348;2022-11-20T07:53:03;-2.10;99.90
17851;DHT22;9051;51.548;14.348;2022-11-20T07:55:36;-2.10;99.90
17851;DHT22;9051;51.548;14.348;2022-11-20T07:58:08;-2.00;99.90
17851;DHT22;9051;51.548;14.348;2022-11-20T08:00:41;-2.00;99.90
17851;DHT22;9051;51.548;14.348;2022-11-20T08:03:13;-1.90;99.90
17851;DHT22;9051;51.548;14.348;2022-11-20T08:05:45;-1.90;99.90
17851;DHT22;9051;51.548;14.348;2022-11-20T08:08:17;-1.90;99.90
17851;DHT22;9051;51.548;14.348;2022-11-20T08:10:49;-1.90;99.90
17851;DHT22;9051;51.548;14.348;2022-11-20T08:13:21;-1.90;99.90
17851;DHT22;9051;51.548;14.348;2022-11-20T08:16:11;-1.90;99.90
17851;DHT22;9051;51.548;14.348;2022-11-20T08:18:43;-1.90;99.90
17851;DHT22;9051;51.548;14.348;2022-11-20T08:21:15;-1.90;99.90
17851;DHT22;9051;51.548;14.348;2022-11-20T08:23:47;-1.90;99.90
17851;DHT22;9051;51.548;14.348;2022-11-20T08:26:20;-1.80;99.90
17851;DHT22;9051;51.548;14.348;2022-11-20T08:28:53;-1.80;99.90
17851;DHT22;9051;51.548;14.348;2022-11-20T08:31:27;-1.80;99.90
17851;DHT22;9051;51.548;14.348;2022-11-20T08:34:00;-1.80;99.90
17851;DHT22;9051;51.548;14.348;2022-11-20T08:36:33;-1.80;99.90
17851;DHT22;9051;51.548;14.348;2022-11-20T08:39:05;-1.80;99.90
17851;DHT22;9051;51.548;14.348;2022-11-20T08:41:37;-1.70;99.90
17851;DHT22;9051;51.548;14.348;2022-11-20T08:44:09;-1.70;99.90
17851;DHT22;9051;51.548;14.348;2022-11-20T08:46:42;-1.70;99.90
17851;DHT22;9051;51.548;14.348;2022-11-20T08:49:16;-1.70;99.90
17851;DHT22;9051;51.548;14.348;2022-11-20T08:51:48;-1.60;99.90
17851;DHT22;9051;51.548;14.348;2022-11-20T08:54:22;-1.60;99.90
17851;DHT22;9051;51.548;14.348;2022-11-20T08:56:54;-1.60;99.90
17851;DHT22;9051;51.548;14.348;2022-11-20T08:59:26;-1.50;99.90
17851;DHT22;9051;51.548;14.348;2022-11-20T09:02:00;-1.50;99.90
17851;DHT22;9051;51.548;14.348;2022-11-20T09:04:32;-1.50;99.90
17851;DHT22;9051;51.548;14.348;2022-11-20T09:07:03;-1.50;99.90
17851;DHT22;9051;51.548;14.348;2022-11-20T09:09:35;-1.40;99.90
17851;DHT22;9051;51.548;14.348;2022-11-20T09:12:08;-1.40;99.90
17851;DHT22;9051;51.548;14.348;2022-11-20T09:14:40;-1.40;99.90
17851;DHT22;9051;51.548;14.348;2022-11-20T09:17:13;-1.40;99.90
17851;DHT22;9051;51.548;14.348;2022-11-20T09:19:45;-1.30;99.90
17851;DHT22;9051;51.548;14.348;2022-11-20T09:22:17;-1.30;99.90
17851;DHT22;9051;51.548;14.348;2022-11-20T09:24:49;-1.30;99.90
17851;DHT22;9051;51.548;14.348;2022-11-20T09:27:21;-1.30;99.90
17851;DHT22;9051;51.548;14.348;2022-11-20T09:29:54;-1.20;99.90
17851;DHT22;9051;51.548;14.348;2022-11-20T09:32:27;-1.20;99.90
17851;DHT22;9051;51.548;14.348;2022-11-20T09:34:59;-1.10;99.90
17851;DHT22;9051;51.548;14.348;2022-11-20T09:37:31;-1.00;99.90
17851;DHT22;9051;51.548;14.348;2022-11-20T09:40:04;-1.00;99.90
17851;DHT22;9051;51.548;14.348;2022-11-20T09:42:40;-0.90;99.90
17851;DHT22;9051;51.548;14.348;2022-11-20T09:45:22;-0.80;99.90
17851;DHT22;9051;51.548;14.348;2022-11-20T09:48:05;-0.70;99.90
17851;DHT22;9051;51.548;14.348;2022-11-20T09:50:45;-0.70;99.90
17851;DHT22;9051;51.548;14.348;2022-11-20T09:53:24;-0.60;99.90
17851;DHT22;9051;51.548;14.348;2022-11-20T09:56:01;-0.60;99.90
17851;DHT22;9051;51.548;14.348;2022-11-20T09:58:39;-0.50;99.90
17851;DHT22;9051;51.548;14.348;2022-11-20T10:01:15;-0.40;99.90
17851;DHT22;9051;51.548;14.348;2022-11-20T10:03:55;-0.30;99.90
17851;DHT22;9051;51.548;14.348;2022-11-20T10:06:30;-0.20;99.90
17851;DHT22;9051;51.548;14.348;2022-11-20T10:09:15;0.00;99.90
17851;DHT22;9051;51.548;14.348;2022-11-20T10:11:59;0.00;99.90
17851;DHT22;9051;51.548;14.348;2022-11-20T10:14:47;0.00;99.90
17851;DHT22;9051;51.548;14.348;2022-11-20T10:17:34;0.00;99.90
17851;DHT22;9051;51.548;14.348;2022-11-20T10:20:16;0.10;99.90
17851;DHT22;9051;51.548;14.348;2022-11-20T10:23:08;0.10;99.90
17851;DHT22;9051;51.548;14.348;2022-11-20T10:25:47;0.20;99.90
17851;DHT22;9051;51.548;14.348;2022-11-20T10:28:27;0.20;99.90
17851;DHT22;9051;51.548;14.348;2022-11-20T10:31:04;0.30;99.90
17851;DHT22;9051;51.548;14.348;2022-11-20T10:33:41;0.40;99.90
17851;DHT22;9051;51.548;14.348;2022-11-20T10:36:19;0.40;99.90
17851;DHT22;9051;51.548;14.348;2022-11-20T10:38:56;0.50;99.90
17851;DHT22;9051;51.548;14.348;2022-11-20T10:41:33;0.50;99.90
17851;DHT22;9051;51.548;14.348;2022-11-20T10:44:14;0.60;99.90
17851;DHT22;9051;51.548;14.348;2022-11-20T10:47:12;0.60;99.90
17851;DHT22;9051;51.548;14.348;2022-11-20T10:49:47;0.70;99.90
17851;DHT22;9051;51.548;14.348;2022-11-20T10:52:25;0.70;99.90
17851;DHT22;9051;51.548;14.348;2022-11-20T10:55:23;0.80;99.90
17851;DHT22;9051;51.548;14.348;2022-11-20T10:58:02;0.90;99.90
17851;DHT22;9051;51.548;14.348;2022-11-20T11:00:37;1.00;99.90
17851;DHT22;9051;51.548;14.348;2022-11-20T11:03:20;1.00;99.90
17851;DHT22;9051;51.548;14.348;2022-11-20T11:05:58;1.10;99.90
17851;DHT22;9051;51.548;14.348;2022-11-20T11:08:36;1.20;99.90
17851;DHT22;9051;51.548;14.348;2022-11-20T11:11:20;1.30;99.90
17851;DHT22;9051;51.548;14.348;2022-11-20T11:13:52;1.40;99.90
17851;DHT22;9051;51.548;14.348;2022-11-20T11:16:26;1.50;99.90
17851;DHT22;9051;51.548;14.348;2022-11-20T11:19:04;1.60;99.90
17851;DHT22;9051;51.548;14.348;2022-11-20T11:21:36;1.70;99.90
17851;DHT22;9051;51.548;14.348;2022-11-20T11:24:20;1.70;99.90
17851;DHT22;9051;51.548;14.348;2022-11-20T11:26:56;1.80;99.90
17851;DHT22;9051;51.548;14.348;2022-11-20T11:29:28;1.80;99.90
17851;DHT22;9051;51.548;14.348;2022-11-20T11:32:06;1.90;99.90
17851;DHT22;9051;51.548;14.348;2022-11-20T11:34:38;2.00;99.90
17851;DHT22;9051;51.548;14.348;2022-11-20T11:37:15;2.10;99.90
17851;DHT22;9051;51.548;14.348;2022-11-20T11:39:50;2.10;99.90
17851;DHT22;9051;51.548;14.348;2022-11-20T11:42:22;2.10;99.90
17851;DHT22;9051;51.548;14.348;2022-11-20T11:44:56;2.20;99.90
17851;DHT22;9051;51.548;14.348;2022-11-20T11:47:44;2.30;99.90
17851;DHT22;9051;51.548;14.348;2022-11-20T11:50:19;2.40;99.90
17851;DHT22;9051;51.548;14.348;2022-11-20T11:53:08;2.50;99.90
17851;DHT22;9051;51.548;14.348;2022-11-20T11:55:44;2.50;99.90
17851;DHT22;9051;51.548;14.348;2022-11-20T11:58:33;2.60;99.90
17851;DHT22;9051;51.548;14.348;2022-11-20T12:01:17;2.70;99.90
17851;DHT22;9051;51.548;14.348;2022-11-20T12:03:58;2.70;99.90
17851;DHT22;9051;51.548;14.348;2022-11-20T12:06:32;2.80;99.90
17851;DHT22;9051;51.548;14.348;2022-11-20T12:09:10;2.90;99.90
17851;DHT22;9051;51.548;14.348;2022-11-20T12:11:49;3.00;99.90
17851;DHT22;9051;51.548;14.348;2022-11-20T12:14:26;3.00;99.90
17851;DHT22;9051;51.548;14.348;2022-11-20T12:17:00;3.00;99.90
17851;DHT22;9051;51.548;14.348;2022-11-20T12:19:34;3.00;99.90
17851;DHT22;9051;51.548;14.348;2022-11-20T12:22:16;3.00;99.90
17851;DHT22;9051;51.548;14.348;2022-11-20T12:24:57;3.10;99.90
17851;DHT22;9051;51.548;14.348;2022-11-20T12:27:47;3.20;99.90
17851;DHT22;9051;51.548;14.348;2022-11-20T12:30:23;3.20;99.90
17851;DHT22;9051;51.548;14.348;2022-11-20T12:33:26;3.20;99.90
17851;DHT22;9051;51.548;14.348;2022-11-20T12:36:07;3.10;99.90
17851;DHT22;9051;51.548;14.348;2022-11-20T12:42:16;3.10;99.90
17851;DHT22;9051;51.548;14.348;2022-11-20T12:45:20;3.10;99.90
17851;DHT22;9051;51.548;14.348;2022-11-20T12:48:05;3.10;99.90
17851;DHT22;9051;51.548;14.348;2022-11-20T12:50:50;3.10;99.90
17851;DHT22;9051;51.548;14.348;2022-11-20T12:53:29;3.30;99.90
17851;DHT22;9051;51.548;14.348;2022-11-20T12:56:16;3.20;99.90
17851;DHT22;9051;51.548;14.348;2022-11-20T12:59:01;3.20;99.90
17851;DHT22;9051;51.548;14.348;2022-11-20T13:01:44;3.20;99.90
17851;DHT22;9051;51.548;14.348;2022-11-20T13:04:40;3.30;99.90
17851;DHT22;9051;51.548;14.348;2022-11-20T13:07:17;3.40;99.90
17851;DHT22;9051;51.548;14.348;2022-11-20T13:09:51;3.30;99.90
17851;DHT22;9051;51.548;14.348;2022-11-20T13:12:27;3.20;99.90
17851;DHT22;9051;51.548;14.348;2022-11-20T13:15:08;3.00;99.90
17851;DHT22;9051;51.548;14.348;2022-11-20T13:17:51;3.00;99.90
17851;DHT22;9051;51.548;14.348;2022-11-20T13:20:24;3.00;99.90
17851;DHT22;9051;51.548;14.348;2022-11-20T13:22:57;3.00;99.90
17851;DHT22;9051;51.548;14.348;2022-11-20T13:25:30;3.10;99.90
17851;DHT22;9051;51.548;14.348;2022-11-20T13:28:04;3.10;99.90
17851;DHT22;9051;51.548;14.348;2022-11-20T13:30:57;3.10;99.90
17851;DHT22;9051;51.548;14.348;2022-11-20T13:33:32;3.10;99.90
17851;DHT22;9051;51.548;14.348;2022-11-20T13:36:07;3.10;99.90
17851;DHT22;9051;51.548;14.348;2022-11-20T13:38:52;3.00;99.90
17851;DHT22;9051;51.548;14.348;2022-11-20T13:41:26;3.00;99.90
17851;DHT22;9051;51.548;14.348;2022-11-20T13:44:10;3.00;99.90
17851;DHT22;9051;51.548;14.348;2022-11-20T13:46:45;2.90;99.90
17851;DHT22;9051;51.548;14.348;2022-11-20T13:49:23;2.90;99.90
17851;DHT22;9051;51.548;14.348;2022-11-20T13:52:04;2.80;99.90
17851;DHT22;9051;51.548;14.348;2022-11-20T13:54:51;2.80;99.90
17851;DHT22;9051;51.548;14.348;2022-11-20T13:57:44;2.60;99.90
17851;DHT22;9051;51.548;14.348;2022-11-20T14:00:20;2.50;99.90
17851;DHT22;9051;51.548;14.348;2022-11-20T14:03:01;2.50;99.90
17851;DHT22;9051;51.548;14.348;2022-11-20T14:05:38;2.30;99.90
17851;DHT22;9051;51.548;14.348;2022-11-20T14:08:14;2.20;99.90
17851;DHT22;9051;51.548;14.348;2022-11-20T14:10:49;2.10;99.90
17851;DHT22;9051;51.548;14.348;2022-11-20T14:13:21;2.00;99.90
17851;DHT22;9051;51.548;14.348;2022-11-20T14:15:57;1.90;99.90
17851;DHT22;9051;51.548;14.348;2022-11-20T14:18:29;1.80;99.90
17851;DHT22;9051;51.548;14.348;2022-11-20T14:21:03;1.70;99.90
17851;DHT22;9051;51.548;14.348;2022-11-20T14:23:36;1.70;99.90
17851;DHT22;9051;51.548;14.348;2022-11-20T14:26:18;1.70;99.90
17851;DHT22;9051;51.548;14.348;2022-11-20T14:28:51;1.70;99.90
17851;DHT22;9051;51.548;14.348;2022-11-20T14:31:26;1.60;99.90
17851;DHT22;9051;51.548;14.348;2022-11-20T14:33:58;1.50;99.90
17851;DHT22;9051;51.548;14.348;2022-11-20T14:36:31;1.40;99.90
17851;DHT22;9051;51.548;14.348;2022-11-20T14:39:04;1.40;99.90
17851;DHT22;9051;51.548;14.348;2022-11-20T14:41:36;1.40;99.90
17851;DHT22;9051;51.548;14.348;2022-11-20T14:44:09;1.30;99.90
17851;DHT22;9051;51.548;14.348;2022-11-20T14:46:42;1.30;99.90
17851;DHT22;9051;51.548;14.348;2022-11-20T14:49:14;1.20;99.90
17851;DHT22;9051;51.548;14.348;2022-11-20T14:51:58;1.20;99.90
17851;DHT22;9051;51.548;14.348;2022-11-20T14:54:31;1.10;99.90
17851;DHT22;9051;51.548;14.348;2022-11-20T14:57:04;1.00;99.90
17851;DHT22;9051;51.548;14.348;2022-11-20T14:59:35;1.00;99.90
17851;DHT22;9051;51.548;14.348;2022-11-20T15:02:09;0.90;99.90
17851;DHT22;9051;51.548;14.348;2022-11-20T15:04:46;0.90;99.90
17851;DHT22;9051;51.548;14.348;2022-11-20T15:07:28;0.80;99.90
17851;DHT22;9051;51.548;14.348;2022-11-20T15:10:02;0.70;99.90
17851;DHT22;9051;51.548;14.348;2022-11-20T15:12:40;0.70;99.90
17851;DHT22;9051;51.548;14.348;2022-11-20T15:15:21;0.70;99.90
17851;DHT22;9051;51.548;14.348;2022-11-20T15:17:55;0.60;99.90
17851;DHT22;9051;51.548;14.348;2022-11-20T15:20:30;0.60;99.90
17851;DHT22;9051;51.548;14.348;2022-11-20T15:23:09;0.60;99.90
17851;DHT22;9051;51.548;14.348;2022-11-20T15:25:42;0.60;99.90
17851;DHT22;9051;51.548;14.348;2022-11-20T15:28:17;0.50;99.90
17851;DHT22;9051;51.548;14.348;2022-11-20T15:30:50;0.40;99.90
17851;DHT22;9051;51.548;14.348;2022-11-20T15:33:22;0.30;99.90
17851;DHT22;9051;51.548;14.348;2022-11-20T15:35:54;0.30;99.90
17851;DHT22;9051;51.548;14.348;2022-11-20T15:38:27;0.20;99.90
17851;DHT22;9051;51.548;14.348;2022-11-20T15:40:59;0.30;99.90
17851;DHT22;9051;51.548;14.348;2022-11-20T15:43:31;0.30;99.90
17851;DHT22;9051;51.548;14.348;2022-11-20T15:46:05;0.30;99.90
17851;DHT22;9051;51.548;14.348;2022-11-20T15:48:40;0.30;99.90
17851;DHT22;9051;51.548;14.348;2022-11-20T15:51:21;0.30;99.90
17851;DHT22;9051;51.548;14.348;2022-11-20T15:53:56;0.20;99.90
17851;DHT22;9051;51.548;14.348;2022-11-20T15:56:28;0.20;99.90
17851;DHT22;9051;51.548;14.348;2022-11-20T15:59:00;0.10;99.90
17851;DHT22;9051;51.548;14.348;2022-11-20T16:01:32;0.10;99.90
17851;DHT22;9051;51.548;14.348;2022-11-20T16:04:07;0.10;99.90
17851;DHT22;9051;51.548;14.348;2022-11-20T16:06:40;0.10;99.90
17851;DHT22;9051;51.548;14.348;2022-11-20T16:09:14;0.10;99.90
17851;DHT22;9051;51.548;14.348;2022-11-20T16:11:46;0.10;99.90
17851;DHT22;9051;51.548;14.348;2022-11-20T16:14:17;0.20;99.90
17851;DHT22;9051;51.548;14.348;2022-11-20T16:17:07;0.10;99.90
17851;DHT22;9051;51.548;14.348;2022-11-20T16:19:39;0.10;99.90
17851;DHT22;9051;51.548;14.348;2022-11-20T16:22:11;0.10;99.90
17851;DHT22;9051;51.548;14.348;2022-11-20T16:24:44;0.10;99.90
17851;DHT22;9051;51.548;14.348;2022-11-20T16:27:16;0.10;99.90
17851;DHT22;9051;51.548;14.348;2022-11-20T16:29:48;0.20;99.90
17851;DHT22;9051;51.548;14.348;2022-11-20T16:32:20;0.20;99.90